sensor_id;sensor_type;location;lat;lon;timestamp;P1;durP1;ratioP1;P2;durP2;ratioP2
12383;SDS011;6256;63.808;20.336;2022-09-09T00:00:40;1.40;;;1.30;;
12383;SDS011;6256;63.808;20.336;2022-09-09T00:03:47;1.10;;;1.00;;
12383;SDS011;6256;63.808;20.336;2022-09-09T00:06:29;1.13;;;1.03;;
12383;SDS011;6256;63.808;20.336;2022-09-09T00:09:01;0.90;;;0.90;;
12383;SDS011;6256;63.808;20.336;2022-09-09T00:14:43;1.10;;;1.10;;
12383;SDS011;6256;63.808;20.336;2022-09-09T00:20:13;1.40;;;1.20;;
12383;SDS011;6256;63.808;20.336;2022-09-09T00:28:43;1.20;;;1.07;;
12383;SDS011;6256;63.808;20.336;2022-09-09T00:31:16;1.63;;;1.23;;
12383;SDS011;6256;63.808;20.336;2022-09-09T00:33:48;2.53;;;1.30;;
12383;SDS011;6256;63.808;20.336;2022-09-09T00:36:17;1.50;;;1.00;;
12383;SDS011;6256;63.808;20.336;2022-09-09T00:38:56;1.40;;;1.30;;
12383;SDS011;6256;63.808;20.336;2022-09-09T00:52:58;1.33;;;1.10;;
12383;SDS011;6256;63.808;20.336;2022-09-09T00:56:26;1.73;;;1.37;;
12383;SDS011;6256;63.808;20.336;2022-09-09T00:58:26;2.63;;;1.50;;
12383;SDS011;6256;63.808;20.336;2022-09-09T01:01:07;3.97;;;1.80;;
12383;SDS011;6256;63.808;20.336;2022-09-09T01:03:47;2.30;;;2.10;;
12383;SDS011;6256;63.808;20.336;2022-09-09T01:06:33;3.90;;;1.90;;
12383;SDS011;6256;63.808;20.336;2022-09-09T01:11:43;2.00;;;1.40;;
12383;SDS011;6256;63.808;20.336;2022-09-09T01:14:16;2.77;;;1.60;;
12383;SDS011;6256;63.808;20.336;2022-09-09T01:16:44;2.53;;;1.70;;
12383;SDS011;6256;63.808;20.336;2022-09-09T01:22:08;1.77;;;1.67;;
12383;SDS011;6256;63.808;20.336;2022-09-09T01:27:03;2.47;;;1.70;;
12383;SDS011;6256;63.808;20.336;2022-09-09T01:29:32;4.67;;;1.73;;
12383;SDS011;6256;63.808;20.336;2022-09-09T01:31:59;2.57;;;1.60;;
12383;SDS011;6256;63.808;20.336;2022-09-09T01:34:28;2.37;;;1.40;;
12383;SDS011;6256;63.808;20.336;2022-09-09T01:37:02;2.40;;;1.90;;
12383;SDS011;6256;63.808;20.336;2022-09-09T01:39:33;1.97;;;1.63;;
12383;SDS011;6256;63.808;20.336;2022-09-09T01:42:00;2.50;;;1.80;;
12383;SDS011;6256;63.808;20.336;2022-09-09T01:44:27;3.13;;;1.70;;
12383;SDS011;6256;63.808;20.336;2022-09-09T01:46:54;6.60;;;2.30;;
12383;SDS011;6256;63.808;20.336;2022-09-09T01:49:20;4.60;;;1.60;;
12383;SDS011;6256;63.808;20.336;2022-09-09T01:51:49;2.67;;;1.90;;
12383;SDS011;6256;63.808;20.336;2022-09-09T01:54:18;2.30;;;1.70;;
12383;SDS011;6256;63.808;20.336;2022-09-09T02:02:26;4.33;;;2.10;;
12383;SDS011;6256;63.808;20.336;2022-09-09T02:05:06;2.30;;;1.73;;
12383;SDS011;6256;63.808;20.336;2022-09-09T02:07:40;4.20;;;1.83;;
12383;SDS011;6256;63.808;20.336;2022-09-09T02:12:42;2.47;;;2.00;;
12383;SDS011;6256;63.808;20.336;2022-09-09T02:15:31;3.50;;;1.87;;
12383;SDS011;6256;63.808;20.336;2022-09-09T02:18:01;3.77;;;2.07;;
12383;SDS011;6256;63.808;20.336;2022-09-09T02:20:32;3.27;;;1.70;;
12383;SDS011;6256;63.808;20.336;2022-09-09T02:22:59;4.30;;;2.53;;
12383;SDS011;6256;63.808;20.336;2022-09-09T02:25:30;2.57;;;1.67;;
12383;SDS011;6256;63.808;20.336;2022-09-09T02:27:58;2.20;;;1.80;;
12383;SDS011;6256;63.808;20.336;2022-09-09T02:30:24;3.13;;;1.90;;
12383;SDS011;6256;63.808;20.336;2022-09-09T02:32:51;3.50;;;1.90;;
12383;SDS011;6256;63.808;20.336;2022-09-09T02:35:22;3.17;;;2.13;;
12383;SDS011;6256;63.808;20.336;2022-09-09T02:37:50;1.80;;;1.70;;
12383;SDS011;6256;63.808;20.336;2022-09-09T02:40:18;3.10;;;1.90;;
12383;SDS011;6256;63.808;20.336;2022-09-09T02:42:47;4.03;;;1.50;;
12383;SDS011;6256;63.808;20.336;2022-09-09T02:45:14;2.27;;;1.90;;
12383;SDS011;6256;63.808;20.336;2022-09-09T02:47:56;2.10;;;1.73;;
12383;SDS011;6256;63.808;20.336;2022-09-09T02:50:40;2.40;;;1.83;;
12383;SDS011;6256;63.808;20.336;2022-09-09T02:53:18;2.40;;;1.60;;
12383;SDS011;6256;63.808;20.336;2022-09-09T02:55:48;4.07;;;1.60;;
12383;SDS011;6256;63.808;20.336;2022-09-09T02:58:21;2.93;;;1.43;;
12383;SDS011;6256;63.808;20.336;2022-09-09T03:00:48;3.43;;;1.90;;
12383;SDS011;6256;63.808;20.336;2022-09-09T03:03:15;2.13;;;1.60;;
12383;SDS011;6256;63.808;20.336;2022-09-09T03:05:43;2.53;;;1.63;;
12383;SDS011;6256;63.808;20.336;2022-09-09T03:08:09;2.40;;;1.70;;
12383;SDS011;6256;63.808;20.336;2022-09-09T03:10:35;2.53;;;1.70;;
12383;SDS011;6256;63.808;20.336;2022-09-09T03:13:02;3.10;;;2.13;;
12383;SDS011;6256;63.808;20.336;2022-09-09T03:15:29;2.40;;;1.60;;
12383;SDS011;6256;63.808;20.336;2022-09-09T03:17:56;1.80;;;1.57;;
12383;SDS011;6256;63.808;20.336;2022-09-09T03:20:23;1.83;;;1.30;;
12383;SDS011;6256;63.808;20.336;2022-09-09T03:22:51;3.53;;;1.70;;
12383;SDS011;6256;63.808;20.336;2022-09-09T03:25:17;5.47;;;1.43;;
12383;SDS011;6256;63.808;20.336;2022-09-09T03:27:43;4.20;;;1.70;;
12383;SDS011;6256;63.808;20.336;2022-09-09T03:30:09;2.73;;;1.97;;
12383;SDS011;6256;63.808;20.336;2022-09-09T03:32:35;1.77;;;1.37;;
12383;SDS011;6256;63.808;20.336;2022-09-09T03:35:01;2.23;;;1.43;;
12383;SDS011;6256;63.808;20.336;2022-09-09T03:37:27;4.30;;;1.70;;
12383;SDS011;6256;63.808;20.336;2022-09-09T03:39:53;2.80;;;1.40;;
12383;SDS011;6256;63.808;20.336;2022-09-09T03:42:22;1.90;;;1.20;;
12383;SDS011;6256;63.808;20.336;2022-09-09T03:44:47;3.50;;;1.67;;
12383;SDS011;6256;63.808;20.336;2022-09-09T03:47:15;2.77;;;1.40;;
12383;SDS011;6256;63.808;20.336;2022-09-09T03:49:42;1.73;;;1.47;;
12383;SDS011;6256;63.808;20.336;2022-09-09T03:52:08;1.37;;;1.17;;
12383;SDS011;6256;63.808;20.336;2022-09-09T03:54:34;3.27;;;1.47;;
12383;SDS011;6256;63.808;20.336;2022-09-09T03:57:00;1.70;;;1.17;;
12383;SDS011;6256;63.808;20.336;2022-09-09T03:59:29;2.87;;;1.50;;
12383;SDS011;6256;63.808;20.336;2022-09-09T04:01:55;2.93;;;1.50;;
12383;SDS011;6256;63.808;20.336;2022-09-09T04:04:22;2.53;;;1.60;;
12383;SDS011;6256;63.808;20.336;2022-09-09T04:06:48;2.07;;;1.30;;
12383;SDS011;6256;63.808;20.336;2022-09-09T04:09:14;1.93;;;1.47;;
12383;SDS011;6256;63.808;20.336;2022-09-09T04:11:40;1.97;;;1.50;;
12383;SDS011;6256;63.808;20.336;2022-09-09T04:14:05;1.50;;;1.40;;
12383;SDS011;6256;63.808;20.336;2022-09-09T04:16:32;2.13;;;1.67;;
12383;SDS011;6256;63.808;20.336;2022-09-09T04:18:58;2.53;;;1.57;;
12383;SDS011;6256;63.808;20.336;2022-09-09T04:21:25;3.30;;;1.60;;
12383;SDS011;6256;63.808;20.336;2022-09-09T04:23:51;1.97;;;1.70;;
12383;SDS011;6256;63.808;20.336;2022-09-09T04:26:17;2.03;;;1.47;;
12383;SDS011;6256;63.808;20.336;2022-09-09T04:28:43;3.30;;;1.83;;
12383;SDS011;6256;63.808;20.336;2022-09-09T04:31:11;1.77;;;1.60;;
12383;SDS011;6256;63.808;20.336;2022-09-09T04:33:42;3.27;;;1.53;;
12383;SDS011;6256;63.808;20.336;2022-09-09T04:36:08;1.50;;;1.40;;
12383;SDS011;6256;63.808;20.336;2022-09-09T04:38:34;2.27;;;2.07;;
12383;SDS011;6256;63.808;20.336;2022-09-09T04:41:00;2.30;;;1.90;;
12383;SDS011;6256;63.808;20.336;2022-09-09T04:43:29;3.67;;;1.50;;
12383;SDS011;6256;63.808;20.336;2022-09-09T04:45:55;1.90;;;1.30;;
12383;SDS011;6256;63.808;20.336;2022-09-09T04:48:22;1.97;;;1.57;;
12383;SDS011;6256;63.808;20.336;2022-09-09T04:50:56;2.80;;;1.90;;
12383;SDS011;6256;63.808;20.336;2022-09-09T04:53:21;2.63;;;1.67;;
12383;SDS011;6256;63.808;20.336;2022-09-09T04:55:47;2.93;;;1.70;;
12383;SDS011;6256;63.808;20.336;2022-09-09T04:58:14;1.83;;;1.47;;
12383;SDS011;6256;63.808;20.336;2022-09-09T05:00:40;2.03;;;1.63;;
12383;SDS011;6256;63.808;20.336;2022-09-09T05:03:06;1.70;;;1.40;;
12383;SDS011;6256;63.808;20.336;2022-09-09T05:05:33;1.40;;;1.30;;
12383;SDS011;6256;63.808;20.336;2022-09-09T05:08:03;3.50;;;1.70;;
12383;SDS011;6256;63.808;20.336;2022-09-09T05:10:29;2.90;;;1.93;;
12383;SDS011;6256;63.808;20.336;2022-09-09T05:12:56;2.37;;;1.57;;
12383;SDS011;6256;63.808;20.336;2022-09-09T05:15:22;1.73;;;1.60;;
12383;SDS011;6256;63.808;20.336;2022-09-09T05:17:48;2.83;;;1.53;;
12383;SDS011;6256;63.808;20.336;2022-09-09T05:20:14;1.67;;;1.37;;
12383;SDS011;6256;63.808;20.336;2022-09-09T05:22:39;2.50;;;1.57;;
12383;SDS011;6256;63.808;20.336;2022-09-09T05:25:06;2.00;;;1.60;;
12383;SDS011;6256;63.808;20.336;2022-09-09T05:27:33;3.90;;;1.80;;
12383;SDS011;6256;63.808;20.336;2022-09-09T05:29:59;3.43;;;2.00;;
12383;SDS011;6256;63.808;20.336;2022-09-09T05:32:26;3.53;;;1.63;;
12383;SDS011;6256;63.808;20.336;2022-09-09T05:34:51;3.30;;;1.70;;
12383;SDS011;6256;63.808;20.336;2022-09-09T05:37:17;2.33;;;1.53;;
12383;SDS011;6256;63.808;20.336;2022-09-09T05:39:43;3.03;;;1.90;;
12383;SDS011;6256;63.808;20.336;2022-09-09T05:42:09;3.30;;;1.60;;
12383;SDS011;6256;63.808;20.336;2022-09-09T05:44:35;3.33;;;1.70;;
12383;SDS011;6256;63.808;20.336;2022-09-09T05:47:02;2.30;;;1.57;;
12383;SDS011;6256;63.808;20.336;2022-09-09T05:49:28;1.87;;;1.67;;
12383;SDS011;6256;63.808;20.336;2022-09-09T05:51:54;2.60;;;1.67;;
12383;SDS011;6256;63.808;20.336;2022-09-09T05:54:19;3.77;;;1.60;;
12383;SDS011;6256;63.808;20.336;2022-09-09T05:56:45;5.60;;;2.03;;
12383;SDS011;6256;63.808;20.336;2022-09-09T05:59:11;2.80;;;1.63;;
12383;SDS011;6256;63.808;20.336;2022-09-09T06:01:37;2.67;;;1.60;;
12383;SDS011;6256;63.808;20.336;2022-09-09T06:04:07;5.43;;;1.60;;
12383;SDS011;6256;63.808;20.336;2022-09-09T06:06:34;1.67;;;1.30;;
12383;SDS011;6256;63.808;20.336;2022-09-09T06:09:02;3.53;;;1.50;;
12383;SDS011;6256;63.808;20.336;2022-09-09T06:11:31;3.67;;;1.40;;
12383;SDS011;6256;63.808;20.336;2022-09-09T06:13:59;1.33;;;1.23;;
12383;SDS011;6256;63.808;20.336;2022-09-09T06:16:25;4.13;;;1.47;;
12383;SDS011;6256;63.808;20.336;2022-09-09T06:18:52;3.57;;;1.77;;
12383;SDS011;6256;63.808;20.336;2022-09-09T06:21:24;2.30;;;1.50;;
12383;SDS011;6256;63.808;20.336;2022-09-09T06:23:50;2.10;;;1.70;;
12383;SDS011;6256;63.808;20.336;2022-09-09T06:28:50;4.63;;;1.33;;
12383;SDS011;6256;63.808;20.336;2022-09-09T06:31:18;2.17;;;1.60;;
12383;SDS011;6256;63.808;20.336;2022-09-09T06:33:46;4.40;;;1.60;;
12383;SDS011;6256;63.808;20.336;2022-09-09T06:36:18;2.73;;;1.43;;
12383;SDS011;6256;63.808;20.336;2022-09-09T06:38:45;1.80;;;1.27;;
12383;SDS011;6256;63.808;20.336;2022-09-09T06:41:12;1.10;;;1.00;;
12383;SDS011;6256;63.808;20.336;2022-09-09T06:43:39;2.80;;;1.73;;
12383;SDS011;6256;63.808;20.336;2022-09-09T06:46:06;3.10;;;1.43;;
12383;SDS011;6256;63.808;20.336;2022-09-09T06:48:38;3.23;;;1.30;;
12383;SDS011;6256;63.808;20.336;2022-09-09T06:53:39;1.20;;;1.00;;
12383;SDS011;6256;63.808;20.336;2022-09-09T06:58:41;2.03;;;1.10;;
12383;SDS011;6256;63.808;20.336;2022-09-09T07:01:09;1.23;;;1.10;;
12383;SDS011;6256;63.808;20.336;2022-09-09T07:03:37;4.00;;;1.10;;
12383;SDS011;6256;63.808;20.336;2022-09-09T07:06:07;2.17;;;1.27;;
12383;SDS011;6256;63.808;20.336;2022-09-09T07:08:39;3.03;;;1.47;;
12383;SDS011;6256;63.808;20.336;2022-09-09T07:11:05;0.97;;;0.97;;
12383;SDS011;6256;63.808;20.336;2022-09-09T07:13:32;1.73;;;1.20;;
12383;SDS011;6256;63.808;20.336;2022-09-09T07:16:08;3.00;;;1.10;;
12383;SDS011;6256;63.808;20.336;2022-09-09T07:18:35;3.30;;;1.20;;
12383;SDS011;6256;63.808;20.336;2022-09-09T07:21:02;3.07;;;0.90;;
12383;SDS011;6256;63.808;20.336;2022-09-09T07:23:29;1.03;;;0.93;;
12383;SDS011;6256;63.808;20.336;2022-09-09T07:25:58;2.70;;;1.10;;
12383;SDS011;6256;63.808;20.336;2022-09-09T07:28:25;1.33;;;1.03;;
12383;SDS011;6256;63.808;20.336;2022-09-09T07:30:58;2.33;;;1.10;;
12383;SDS011;6256;63.808;20.336;2022-09-09T07:33:32;1.40;;;1.10;;
12383;SDS011;6256;63.808;20.336;2022-09-09T07:36:06;2.20;;;1.17;;
12383;SDS011;6256;63.808;20.336;2022-09-09T07:38:45;1.70;;;1.20;;
12383;SDS011;6256;63.808;20.336;2022-09-09T07:41:17;2.83;;;1.00;;
12383;SDS011;6256;63.808;20.336;2022-09-09T07:43:45;1.97;;;1.43;;
12383;SDS011;6256;63.808;20.336;2022-09-09T07:46:13;3.57;;;1.00;;
12383;SDS011;6256;63.808;20.336;2022-09-09T07:48:46;2.77;;;1.17;;
12383;SDS011;6256;63.808;20.336;2022-09-09T07:51:16;2.30;;;1.27;;
12383;SDS011;6256;63.808;20.336;2022-09-09T07:53:45;3.70;;;1.23;;
12383;SDS011;6256;63.808;20.336;2022-09-09T07:56:16;3.97;;;1.07;;
12383;SDS011;6256;63.808;20.336;2022-09-09T07:58:44;1.80;;;1.23;;
12383;SDS011;6256;63.808;20.336;2022-09-09T08:01:12;1.40;;;1.10;;
12383;SDS011;6256;63.808;20.336;2022-09-09T08:03:41;0.80;;;0.80;;
12383;SDS011;6256;63.808;20.336;2022-09-09T08:06:08;1.50;;;0.87;;
12383;SDS011;6256;63.808;20.336;2022-09-09T08:08:34;0.70;;;0.70;;
12383;SDS011;6256;63.808;20.336;2022-09-09T08:11:05;2.10;;;1.00;;
12383;SDS011;6256;63.808;20.336;2022-09-09T08:13:36;2.87;;;0.93;;
12383;SDS011;6256;63.808;20.336;2022-09-09T08:16:04;5.70;;;1.03;;
12383;SDS011;6256;63.808;20.336;2022-09-09T08:18:33;2.43;;;1.13;;
12383;SDS011;6256;63.808;20.336;2022-09-09T08:21:04;1.95;;;1.00;;
12383;SDS011;6256;63.808;20.336;2022-09-09T08:23:43;0.80;;;0.80;;
12383;SDS011;6256;63.808;20.336;2022-09-09T08:28:41;1.30;;;0.83;;
12383;SDS011;6256;63.808;20.336;2022-09-09T08:33:58;1.02;;;0.80;;
12383;SDS011;6256;63.808;20.336;2022-09-09T08:36:26;0.63;;;0.63;;
12383;SDS011;6256;63.808;20.336;2022-09-09T08:38:54;1.60;;;1.02;;
12383;SDS011;6256;63.808;20.336;2022-09-09T08:44:18;0.70;;;0.70;;
12383;SDS011;6256;63.808;20.336;2022-09-09T08:49:38;0.85;;;0.80;;
12383;SDS011;6256;63.808;20.336;2022-09-09T08:52:28;0.65;;;0.65;;
12383;SDS011;6256;63.808;20.336;2022-09-09T08:55:03;0.60;;;0.60;;
12383;SDS011;6256;63.808;20.336;2022-09-09T08:57:31;0.75;;;0.68;;
12383;SDS011;6256;63.808;20.336;2022-09-09T08:59:58;0.80;;;0.73;;
12383;SDS011;6256;63.808;20.336;2022-09-09T09:02:32;0.50;;;0.50;;
12383;SDS011;6256;63.808;20.336;2022-09-09T09:08:11;0.50;;;0.50;;
12383;SDS011;6256;63.808;20.336;2022-09-09T09:10:57;1.95;;;0.50;;
12383;SDS011;6256;63.808;20.336;2022-09-09T09:19:03;0.85;;;0.63;;
12383;SDS011;6256;63.808;20.336;2022-09-09T09:21:43;0.68;;;0.68;;
12383;SDS011;6256;63.808;20.336;2022-09-09T09:24:19;0.50;;;0.50;;
12383;SDS011;6256;63.808;20.336;2022-09-09T09:26:49;0.52;;;0.52;;
12383;SDS011;6256;63.808;20.336;2022-09-09T09:29:16;2.05;;;0.55;;
12383;SDS011;6256;63.808;20.336;2022-09-09T09:31:45;0.47;;;0.47;;
12383;SDS011;6256;63.808;20.336;2022-09-09T09:34:16;0.60;;;0.60;;
12383;SDS011;6256;63.808;20.336;2022-09-09T09:36:46;0.40;;;0.40;;
12383;SDS011;6256;63.808;20.336;2022-09-09T09:41:55;1.58;;;0.60;;
12383;SDS011;6256;63.808;20.336;2022-09-09T09:46:53;0.40;;;0.40;;
12383;SDS011;6256;63.808;20.336;2022-09-09T09:49:30;0.60;;;0.60;;
12383;SDS011;6256;63.808;20.336;2022-09-09T09:52:00;0.40;;;0.40;;
12383;SDS011;6256;63.808;20.336;2022-09-09T09:54:27;0.50;;;0.50;;
12383;SDS011;6256;63.808;20.336;2022-09-09T09:56:55;0.85;;;0.60;;
12383;SDS011;6256;63.808;20.336;2022-09-09T09:59:33;1.60;;;0.70;;
12383;SDS011;6256;63.808;20.336;2022-09-09T10:04:39;0.60;;;0.60;;
12383;SDS011;6256;63.808;20.336;2022-09-09T10:07:12;1.08;;;0.60;;
12383;SDS011;6256;63.808;20.336;2022-09-09T10:09:47;0.50;;;0.50;;
12383;SDS011;6256;63.808;20.336;2022-09-09T10:28:56;2.10;;;0.80;;
12383;SDS011;6256;63.808;20.336;2022-09-09T10:34:18;0.85;;;0.70;;
12383;SDS011;6256;63.808;20.336;2022-09-09T10:36:46;0.60;;;0.60;;
12383;SDS011;6256;63.808;20.336;2022-09-09T10:47:23;1.48;;;0.60;;
12383;SDS011;6256;63.808;20.336;2022-09-09T10:55:49;1.30;;;1.08;;
12383;SDS011;6256;63.808;20.336;2022-09-09T10:58:29;1.05;;;0.85;;
12383;SDS011;6256;63.808;20.336;2022-09-09T11:01:11;0.60;;;0.50;;
12383;SDS011;6256;63.808;20.336;2022-09-09T11:03:47;0.50;;;0.50;;
12383;SDS011;6256;63.808;20.336;2022-09-09T11:06:22;0.60;;;0.60;;
12383;SDS011;6256;63.808;20.336;2022-09-09T11:08:54;0.60;;;0.60;;
12383;SDS011;6256;63.808;20.336;2022-09-09T11:11:36;1.65;;;0.60;;
12383;SDS011;6256;63.808;20.336;2022-09-09T11:14:26;1.45;;;0.80;;
12383;SDS011;6256;63.808;20.336;2022-09-09T11:17:07;0.82;;;0.70;;
12383;SDS011;6256;63.808;20.336;2022-09-09T11:19:38;0.50;;;0.50;;
12383;SDS011;6256;63.808;20.336;2022-09-09T11:22:07;1.10;;;0.85;;
12383;SDS011;6256;63.808;20.336;2022-09-09T11:24:53;0.50;;;0.50;;
12383;SDS011;6256;63.808;20.336;2022-09-09T11:32:53;1.45;;;0.90;;
12383;SDS011;6256;63.808;20.336;2022-09-09T11:40:45;1.95;;;1.00;;
12383;SDS011;6256;63.808;20.336;2022-09-09T11:43:17;1.50;;;0.82;;
12383;SDS011;6256;63.808;20.336;2022-09-09T11:45:55;1.88;;;0.70;;
12383;SDS011;6256;63.808;20.336;2022-09-09T11:56:23;0.82;;;0.60;;
12383;SDS011;6256;63.808;20.336;2022-09-09T11:58:54;0.75;;;0.60;;
12383;SDS011;6256;63.808;20.336;2022-09-09T12:01:29;2.55;;;0.90;;
12383;SDS011;6256;63.808;20.336;2022-09-09T12:04:12;0.90;;;0.70;;
12383;SDS011;6256;63.808;20.336;2022-09-09T12:09:27;0.80;;;0.80;;
12383;SDS011;6256;63.808;20.336;2022-09-09T12:12:05;0.80;;;0.80;;
12383;SDS011;6256;63.808;20.336;2022-09-09T12:17:31;0.63;;;0.63;;
12383;SDS011;6256;63.808;20.336;2022-09-09T12:22:51;0.70;;;0.70;;
12383;SDS011;6256;63.808;20.336;2022-09-09T12:25:44;0.70;;;0.70;;
12383;SDS011;6256;63.808;20.336;2022-09-09T12:34:10;0.60;;;0.55;;
12383;SDS011;6256;63.808;20.336;2022-09-09T12:36:41;1.25;;;0.68;;
12383;SDS011;6256;63.808;20.336;2022-09-09T12:39:19;0.73;;;0.73;;
12383;SDS011;6256;63.808;20.336;2022-09-09T12:42:15;1.58;;;0.85;;
12383;SDS011;6256;63.808;20.336;2022-09-09T12:44:50;3.33;;;0.77;;
12383;SDS011;6256;63.808;20.336;2022-09-09T12:47:21;0.77;;;0.77;;
12383;SDS011;6256;63.808;20.336;2022-09-09T12:49:51;0.50;;;0.50;;
12383;SDS011;6256;63.808;20.336;2022-09-09T12:52:21;1.63;;;0.60;;
12383;SDS011;6256;63.808;20.336;2022-09-09T12:54:51;0.50;;;0.50;;
12383;SDS011;6256;63.808;20.336;2022-09-09T12:57:18;0.57;;;0.57;;
12383;SDS011;6256;63.808;20.336;2022-09-09T12:59:47;1.17;;;0.50;;
12383;SDS011;6256;63.808;20.336;2022-09-09T13:02:26;0.50;;;0.50;;
12383;SDS011;6256;63.808;20.336;2022-09-09T13:04:53;2.15;;;0.65;;
12383;SDS011;6256;63.808;20.336;2022-09-09T13:07:20;0.52;;;0.52;;
12383;SDS011;6256;63.808;20.336;2022-09-09T13:09:47;0.47;;;0.47;;
12383;SDS011;6256;63.808;20.336;2022-09-09T13:12:15;0.60;;;0.60;;
12383;SDS011;6256;63.808;20.336;2022-09-09T13:14:44;0.60;;;0.60;;
12383;SDS011;6256;63.808;20.336;2022-09-09T13:17:23;0.57;;;0.50;;
12383;SDS011;6256;63.808;20.336;2022-09-09T13:19:51;0.50;;;0.50;;
12383;SDS011;6256;63.808;20.336;2022-09-09T13:22:31;0.65;;;0.63;;
12383;SDS011;6256;63.808;20.336;2022-09-09T13:27:40;0.50;;;0.45;;
12383;SDS011;6256;63.808;20.336;2022-09-09T13:30:23;0.65;;;0.60;;
12383;SDS011;6256;63.808;20.336;2022-09-09T13:35:36;2.40;;;0.65;;
12383;SDS011;6256;63.808;20.336;2022-09-09T13:38:14;0.80;;;0.60;;
12383;SDS011;6256;63.808;20.336;2022-09-09T13:40:40;0.60;;;0.60;;
12383;SDS011;6256;63.808;20.336;2022-09-09T13:43:23;0.30;;;0.30;;
12383;SDS011;6256;63.808;20.336;2022-09-09T13:45:54;0.40;;;0.40;;
12383;SDS011;6256;63.808;20.336;2022-09-09T13:48:21;0.68;;;0.40;;
12383;SDS011;6256;63.808;20.336;2022-09-09T13:50:54;0.52;;;0.50;;
12383;SDS011;6256;63.808;20.336;2022-09-09T13:53:25;0.57;;;0.57;;
12383;SDS011;6256;63.808;20.336;2022-09-09T13:55:51;0.30;;;0.30;;
12383;SDS011;6256;63.808;20.336;2022-09-09T13:58:17;0.55;;;0.50;;
12383;SDS011;6256;63.808;20.336;2022-09-09T14:00:44;2.40;;;0.77;;
12383;SDS011;6256;63.808;20.336;2022-09-09T14:03:11;1.45;;;0.52;;
12383;SDS011;6256;63.808;20.336;2022-09-09T14:05:36;0.73;;;0.55;;
12383;SDS011;6256;63.808;20.336;2022-09-09T14:08:03;0.30;;;0.30;;
12383;SDS011;6256;63.808;20.336;2022-09-09T14:10:30;0.50;;;0.50;;
12383;SDS011;6256;63.808;20.336;2022-09-09T14:12:56;1.95;;;0.60;;
12383;SDS011;6256;63.808;20.336;2022-09-09T14:15:22;0.50;;;0.50;;
12383;SDS011;6256;63.808;20.336;2022-09-09T14:17:47;0.60;;;0.60;;
12383;SDS011;6256;63.808;20.336;2022-09-09T14:20:13;1.15;;;0.55;;
12383;SDS011;6256;63.808;20.336;2022-09-09T14:22:40;0.88;;;0.50;;
12383;SDS011;6256;63.808;20.336;2022-09-09T14:25:06;0.47;;;0.47;;
12383;SDS011;6256;63.808;20.336;2022-09-09T14:27:32;1.95;;;0.80;;
12383;SDS011;6256;63.808;20.336;2022-09-09T14:29:58;0.95;;;0.93;;
12383;SDS011;6256;63.808;20.336;2022-09-09T14:32:25;1.05;;;0.95;;
12383;SDS011;6256;63.808;20.336;2022-09-09T14:34:51;1.02;;;0.40;;
12383;SDS011;6256;63.808;20.336;2022-09-09T14:37:18;1.52;;;0.65;;
12383;SDS011;6256;63.808;20.336;2022-09-09T14:39:44;0.65;;;0.65;;
12383;SDS011;6256;63.808;20.336;2022-09-09T14:42:10;0.60;;;0.60;;
12383;SDS011;6256;63.808;20.336;2022-09-09T14:44:36;0.65;;;0.60;;
12383;SDS011;6256;63.808;20.336;2022-09-09T14:47:03;0.50;;;0.50;;
12383;SDS011;6256;63.808;20.336;2022-09-09T14:49:33;0.50;;;0.50;;
12383;SDS011;6256;63.808;20.336;2022-09-09T14:51:59;0.63;;;0.63;;
12383;SDS011;6256;63.808;20.336;2022-09-09T14:54:26;0.65;;;0.65;;
12383;SDS011;6256;63.808;20.336;2022-09-09T14:56:51;0.88;;;0.57;;
12383;SDS011;6256;63.808;20.336;2022-09-09T14:59:17;0.47;;;0.47;;
12383;SDS011;6256;63.808;20.336;2022-09-09T15:01:43;0.82;;;0.75;;
12383;SDS011;6256;63.808;20.336;2022-09-09T15:04:10;0.50;;;0.50;;
12383;SDS011;6256;63.808;20.336;2022-09-09T15:06:39;0.50;;;0.50;;
12383;SDS011;6256;63.808;20.336;2022-09-09T15:09:06;1.08;;;0.70;;
12383;SDS011;6256;63.808;20.336;2022-09-09T15:11:36;0.73;;;0.73;;
12383;SDS011;6256;63.808;20.336;2022-09-09T15:14:03;0.77;;;0.77;;
12383;SDS011;6256;63.808;20.336;2022-09-09T15:16:30;0.60;;;0.60;;
12383;SDS011;6256;63.808;20.336;2022-09-09T15:18:58;0.60;;;0.60;;
12383;SDS011;6256;63.808;20.336;2022-09-09T15:21:31;0.60;;;0.60;;
12383;SDS011;6256;63.808;20.336;2022-09-09T15:23:59;1.08;;;0.57;;
12383;SDS011;6256;63.808;20.336;2022-09-09T15:26:25;0.60;;;0.60;;
12383;SDS011;6256;63.808;20.336;2022-09-09T15:28:52;0.88;;;0.60;;
12383;SDS011;6256;63.808;20.336;2022-09-09T15:31:20;0.57;;;0.57;;
12383;SDS011;6256;63.808;20.336;2022-09-09T15:33:51;0.63;;;0.60;;
12383;SDS011;6256;63.808;20.336;2022-09-09T15:36:18;0.60;;;0.60;;
12383;SDS011;6256;63.808;20.336;2022-09-09T15:38:45;0.60;;;0.60;;
12383;SDS011;6256;63.808;20.336;2022-09-09T15:41:14;0.82;;;0.75;;
12383;SDS011;6256;63.808;20.336;2022-09-09T15:43:44;0.68;;;0.68;;
12383;SDS011;6256;63.808;20.336;2022-09-09T15:48:49;0.70;;;0.70;;
12383;SDS011;6256;63.808;20.336;2022-09-09T15:51:16;0.63;;;0.60;;
12383;SDS011;6256;63.808;20.336;2022-09-09T15:53:41;0.93;;;0.77;;
12383;SDS011;6256;63.808;20.336;2022-09-09T15:56:08;1.07;;;0.60;;
12383;SDS011;6256;63.808;20.336;2022-09-09T15:58:34;0.80;;;0.80;;
12383;SDS011;6256;63.808;20.336;2022-09-09T16:01:03;0.65;;;0.65;;
12383;SDS011;6256;63.808;20.336;2022-09-09T16:03:41;0.60;;;0.60;;
12383;SDS011;6256;63.808;20.336;2022-09-09T16:06:08;0.80;;;0.80;;
12383;SDS011;6256;63.808;20.336;2022-09-09T16:08:35;0.60;;;0.60;;
12383;SDS011;6256;63.808;20.336;2022-09-09T16:11:06;0.70;;;0.70;;
12383;SDS011;6256;63.808;20.336;2022-09-09T16:13:37;0.70;;;0.70;;
12383;SDS011;6256;63.808;20.336;2022-09-09T16:16:04;0.63;;;0.63;;
12383;SDS011;6256;63.808;20.336;2022-09-09T16:18:44;1.37;;;0.90;;
12383;SDS011;6256;63.808;20.336;2022-09-09T16:21:17;1.73;;;0.87;;
12383;SDS011;6256;63.808;20.336;2022-09-09T16:23:49;0.70;;;0.70;;
12383;SDS011;6256;63.808;20.336;2022-09-09T16:26:21;0.80;;;0.80;;
12383;SDS011;6256;63.808;20.336;2022-09-09T16:28:48;0.93;;;0.83;;
12383;SDS011;6256;63.808;20.336;2022-09-09T16:31:16;0.70;;;0.70;;
12383;SDS011;6256;63.808;20.336;2022-09-09T16:33:44;0.70;;;0.70;;
12383;SDS011;6256;63.808;20.336;2022-09-09T16:36:12;0.90;;;0.90;;
12383;SDS011;6256;63.808;20.336;2022-09-09T16:38:40;0.70;;;0.70;;
12383;SDS011;6256;63.808;20.336;2022-09-09T16:41:06;1.03;;;0.70;;
12383;SDS011;6256;63.808;20.336;2022-09-09T16:43:34;1.43;;;0.90;;
12383;SDS011;6256;63.808;20.336;2022-09-09T16:46:01;1.10;;;1.00;;
12383;SDS011;6256;63.808;20.336;2022-09-09T16:48:37;0.90;;;0.90;;
12383;SDS011;6256;63.808;20.336;2022-09-09T16:51:07;0.77;;;0.70;;
12383;SDS011;6256;63.808;20.336;2022-09-09T16:53:36;0.80;;;0.80;;
12383;SDS011;6256;63.808;20.336;2022-09-09T16:56:05;2.00;;;0.93;;
12383;SDS011;6256;63.808;20.336;2022-09-09T16:58:31;2.47;;;1.10;;
12383;SDS011;6256;63.808;20.336;2022-09-09T17:00:58;0.93;;;0.90;;
12383;SDS011;6256;63.808;20.336;2022-09-09T17:03:24;0.80;;;0.80;;
12383;SDS011;6256;63.808;20.336;2022-09-09T17:05:50;0.83;;;0.83;;
12383;SDS011;6256;63.808;20.336;2022-09-09T17:08:16;0.90;;;0.90;;
12383;SDS011;6256;63.808;20.336;2022-09-09T17:10:41;1.37;;;1.10;;
12383;SDS011;6256;63.808;20.336;2022-09-09T17:13:07;2.30;;;1.00;;
12383;SDS011;6256;63.808;20.336;2022-09-09T17:15:33;1.97;;;1.20;;
12383;SDS011;6256;63.808;20.336;2022-09-09T17:18:07;1.17;;;1.07;;
12383;SDS011;6256;63.808;20.336;2022-09-09T17:20:35;1.43;;;1.20;;
12383;SDS011;6256;63.808;20.336;2022-09-09T17:23:08;0.80;;;0.80;;
12383;SDS011;6256;63.808;20.336;2022-09-09T17:25:35;0.90;;;0.90;;
12383;SDS011;6256;63.808;20.336;2022-09-09T17:28:04;3.67;;;1.03;;
12383;SDS011;6256;63.808;20.336;2022-09-09T17:30:33;1.00;;;1.00;;
12383;SDS011;6256;63.808;20.336;2022-09-09T17:33:00;1.93;;;1.10;;